Unbenanntes Dokument
Flugplatz Bielefeld Platzwetter

 

Aktuelles Platzwetter am Flugplatz Bielefeld EDLI

27.05.17 ,00:42 Uhr

METAR EDLI 270042Z 08004KT 9999 17/15 Q1021

 

Windwerte

 

Wolkenuntergrenzen

Wind aktuell:080 ° mit 4 kt
Wind 10 min Extrem:
70 ° bis 90 ° mit 4 kt bis 6 kt
Seitenwindkomponente: -2.3 kt
Wolkengrenze 1:
Wolkengrenze 2:
Wolkengrenze 3:

Webcam

Temperatur

       

Sichtweite:

20.000 Meter

17.2 °C
Taupunkt: 15.6 °C
Luftfeuchtigkeit: 90 %

Luftdruck:

QNH: 1021 hPa (30.15 in Hg)
QFE: 1005 hPa (29.68 in Hg)

Diese Daten werden automatisch ermittelt bzw. übertragen und sind nicht geprüft. Für die Richtigkeit wird daher keine Gewähr übernommen. Sie ersetzen im übrigen nicht die Flugwetterberatung. Alle Zeitangaben beziehen sich auf UTC. Die Seite wird einmal die Minute aktualisiert! Sollten Sie ein ältere Seite haben, so drücken Sie bitte auf den Reload Button Ihres Browsers!